sensor_id;sensor_type;location;lat;lon;timestamp;P1;durP1;ratioP1;P2;durP2;ratioP2
4638;SDS011;2332;38.646;-9.154;2023-06-24T00:01:38;10.10;;;6.30;;
4638;SDS011;2332;38.646;-9.154;2023-06-24T00:04:03;9.83;;;6.07;;
4638;SDS011;2332;38.646;-9.154;2023-06-24T00:06:29;10.10;;;6.43;;
4638;SDS011;2332;38.646;-9.154;2023-06-24T00:08:54;10.80;;;7.03;;
4638;SDS011;2332;38.646;-9.154;2023-06-24T00:11:25;7.53;;;6.60;;
4638;SDS011;2332;38.646;-9.154;2023-06-24T00:13:51;8.10;;;6.30;;
4638;SDS011;2332;38.646;-9.154;2023-06-24T00:16:16;9.57;;;7.00;;
4638;SDS011;2332;38.646;-9.154;2023-06-24T00:18:41;7.43;;;5.80;;
4638;SDS011;2332;38.646;-9.154;2023-06-24T00:21:07;12.80;;;6.70;;
4638;SDS011;2332;38.646;-9.154;2023-06-24T00:23:32;7.53;;;6.37;;
4638;SDS011;2332;38.646;-9.154;2023-06-24T00:26:00;7.20;;;6.50;;
4638;SDS011;2332;38.646;-9.154;2023-06-24T00:28:29;7.57;;;6.70;;
4638;SDS011;2332;38.646;-9.154;2023-06-24T00:30:54;10.87;;;6.57;;
4638;SDS011;2332;38.646;-9.154;2023-06-24T00:33:19;6.20;;;5.67;;
4638;SDS011;2332;38.646;-9.154;2023-06-24T00:35:46;8.97;;;5.83;;
4638;SDS011;2332;38.646;-9.154;2023-06-24T00:38:11;11.00;;;6.83;;
4638;SDS011;2332;38.646;-9.154;2023-06-24T00:40:37;10.13;;;6.57;;
4638;SDS011;2332;38.646;-9.154;2023-06-24T00:43:03;8.83;;;6.70;;
4638;SDS011;2332;38.646;-9.154;2023-06-24T00:45:29;9.97;;;6.10;;
4638;SDS011;2332;38.646;-9.154;2023-06-24T00:48:00;9.17;;;7.17;;
4638;SDS011;2332;38.646;-9.154;2023-06-24T00:50:26;8.93;;;5.70;;
4638;SDS011;2332;38.646;-9.154;2023-06-24T00:52:51;7.30;;;6.07;;
4638;SDS011;2332;38.646;-9.154;2023-06-24T00:55:17;8.87;;;6.40;;
4638;SDS011;2332;38.646;-9.154;2023-06-24T00:57:45;10.10;;;6.40;;
4638;SDS011;2332;38.646;-9.154;2023-06-24T01:00:15;9.20;;;6.97;;
4638;SDS011;2332;38.646;-9.154;2023-06-24T01:02:43;8.70;;;6.30;;
4638;SDS011;2332;38.646;-9.154;2023-06-24T01:05:09;9.90;;;6.70;;
4638;SDS011;2332;38.646;-9.154;2023-06-24T01:07:37;8.77;;;6.17;;
4638;SDS011;2332;38.646;-9.154;2023-06-24T01:10:02;9.20;;;6.97;;
4638;SDS011;2332;38.646;-9.154;2023-06-24T01:12:33;8.90;;;6.47;;
4638;SDS011;2332;38.646;-9.154;2023-06-24T01:14:58;7.73;;;6.20;;
4638;SDS011;2332;38.646;-9.154;2023-06-24T01:17:27;7.40;;;6.20;;
4638;SDS011;2332;38.646;-9.154;2023-06-24T01:25:36;7.33;;;6.20;;
4638;SDS011;2332;38.646;-9.154;2023-06-24T01:33:31;8.60;;;6.40;;
4638;SDS011;2332;38.646;-9.154;2023-06-24T01:35:58;11.27;;;5.90;;
4638;SDS011;2332;38.646;-9.154;2023-06-24T01:38:25;7.10;;;6.20;;
4638;SDS011;2332;38.646;-9.154;2023-06-24T01:40:52;8.47;;;6.30;;
4638;SDS011;2332;38.646;-9.154;2023-06-24T01:43:18;9.80;;;6.37;;
4638;SDS011;2332;38.646;-9.154;2023-06-24T01:45:47;8.10;;;6.30;;
4638;SDS011;2332;38.646;-9.154;2023-06-24T01:48:15;7.37;;;5.70;;
4638;SDS011;2332;38.646;-9.154;2023-06-24T01:50:44;9.30;;;5.80;;
4638;SDS011;2332;38.646;-9.154;2023-06-24T01:53:10;7.33;;;6.50;;
4638;SDS011;2332;38.646;-9.154;2023-06-24T01:55:39;11.43;;;7.70;;
4638;SDS011;2332;38.646;-9.154;2023-06-24T01:58:05;14.70;;;7.43;;
4638;SDS011;2332;38.646;-9.154;2023-06-24T02:00:33;11.23;;;6.83;;
4638;SDS011;2332;38.646;-9.154;2023-06-24T02:02:58;9.53;;;6.57;;
4638;SDS011;2332;38.646;-9.154;2023-06-24T02:05:24;15.87;;;6.97;;
4638;SDS011;2332;38.646;-9.154;2023-06-24T02:07:50;10.40;;;7.63;;
4638;SDS011;2332;38.646;-9.154;2023-06-24T02:10:16;19.97;;;7.83;;
4638;SDS011;2332;38.646;-9.154;2023-06-24T02:12:43;12.57;;;7.47;;
4638;SDS011;2332;38.646;-9.154;2023-06-24T02:15:09;14.23;;;7.90;;
4638;SDS011;2332;38.646;-9.154;2023-06-24T02:17:34;12.63;;;7.87;;
4638;SDS011;2332;38.646;-9.154;2023-06-24T02:20:00;18.90;;;8.33;;
4638;SDS011;2332;38.646;-9.154;2023-06-24T02:22:26;9.77;;;7.43;;
4638;SDS011;2332;38.646;-9.154;2023-06-24T02:24:52;13.07;;;6.53;;
4638;SDS011;2332;38.646;-9.154;2023-06-24T02:27:18;14.97;;;7.53;;
4638;SDS011;2332;38.646;-9.154;2023-06-24T02:29:44;10.63;;;6.70;;
4638;SDS011;2332;38.646;-9.154;2023-06-24T02:32:11;11.33;;;7.20;;
4638;SDS011;2332;38.646;-9.154;2023-06-24T02:34:36;14.80;;;7.40;;
4638;SDS011;2332;38.646;-9.154;2023-06-24T02:37:02;11.30;;;7.60;;
4638;SDS011;2332;38.646;-9.154;2023-06-24T02:39:27;13.03;;;7.60;;
4638;SDS011;2332;38.646;-9.154;2023-06-24T02:41:53;10.77;;;8.00;;
4638;SDS011;2332;38.646;-9.154;2023-06-24T02:44:18;17.60;;;9.73;;
4638;SDS011;2332;38.646;-9.154;2023-06-24T02:46:43;10.43;;;7.50;;
4638;SDS011;2332;38.646;-9.154;2023-06-24T02:49:10;10.03;;;7.47;;
4638;SDS011;2332;38.646;-9.154;2023-06-24T02:51:38;12.97;;;8.10;;
4638;SDS011;2332;38.646;-9.154;2023-06-24T02:54:03;9.73;;;7.00;;
4638;SDS011;2332;38.646;-9.154;2023-06-24T02:56:30;16.10;;;8.17;;
4638;SDS011;2332;38.646;-9.154;2023-06-24T02:58:55;18.60;;;8.57;;
4638;SDS011;2332;38.646;-9.154;2023-06-24T03:01:21;10.20;;;7.47;;
4638;SDS011;2332;38.646;-9.154;2023-06-24T03:03:51;17.10;;;7.73;;
4638;SDS011;2332;38.646;-9.154;2023-06-24T03:06:17;17.07;;;9.23;;
4638;SDS011;2332;38.646;-9.154;2023-06-24T03:08:44;15.43;;;8.10;;
4638;SDS011;2332;38.646;-9.154;2023-06-24T03:11:12;21.97;;;9.17;;
4638;SDS011;2332;38.646;-9.154;2023-06-24T03:13:37;10.53;;;7.80;;
4638;SDS011;2332;38.646;-9.154;2023-06-24T03:16:03;18.03;;;8.20;;
4638;SDS011;2332;38.646;-9.154;2023-06-24T03:18:28;12.20;;;8.77;;
4638;SDS011;2332;38.646;-9.154;2023-06-24T03:20:53;14.07;;;9.30;;
4638;SDS011;2332;38.646;-9.154;2023-06-24T03:23:19;18.27;;;8.60;;
4638;SDS011;2332;38.646;-9.154;2023-06-24T03:25:44;13.90;;;8.13;;
4638;SDS011;2332;38.646;-9.154;2023-06-24T03:28:09;12.57;;;7.47;;
4638;SDS011;2332;38.646;-9.154;2023-06-24T03:30:35;16.60;;;9.27;;
4638;SDS011;2332;38.646;-9.154;2023-06-24T03:33:01;15.77;;;9.40;;
4638;SDS011;2332;38.646;-9.154;2023-06-24T03:35:27;14.00;;;8.37;;
4638;SDS011;2332;38.646;-9.154;2023-06-24T03:37:52;10.37;;;8.20;;
4638;SDS011;2332;38.646;-9.154;2023-06-24T03:40:20;11.00;;;7.97;;
4638;SDS011;2332;38.646;-9.154;2023-06-24T03:42:46;12.93;;;8.27;;
4638;SDS011;2332;38.646;-9.154;2023-06-24T03:45:11;11.00;;;8.50;;
4638;SDS011;2332;38.646;-9.154;2023-06-24T03:47:37;18.03;;;9.63;;
4638;SDS011;2332;38.646;-9.154;2023-06-24T03:50:04;20.50;;;9.47;;
4638;SDS011;2332;38.646;-9.154;2023-06-24T03:52:29;26.60;;;10.00;;
4638;SDS011;2332;38.646;-9.154;2023-06-24T03:54:55;14.00;;;9.17;;
4638;SDS011;2332;38.646;-9.154;2023-06-24T03:57:20;30.33;;;10.73;;
4638;SDS011;2332;38.646;-9.154;2023-06-24T03:59:46;15.20;;;9.73;;
4638;SDS011;2332;38.646;-9.154;2023-06-24T04:02:11;18.40;;;10.00;;
4638;SDS011;2332;38.646;-9.154;2023-06-24T04:04:39;25.27;;;8.70;;
4638;SDS011;2332;38.646;-9.154;2023-06-24T04:07:04;17.93;;;8.80;;
4638;SDS011;2332;38.646;-9.154;2023-06-24T04:09:32;11.13;;;8.30;;
4638;SDS011;2332;38.646;-9.154;2023-06-24T04:11:58;15.83;;;8.27;;
4638;SDS011;2332;38.646;-9.154;2023-06-24T04:14:23;14.70;;;8.67;;
4638;SDS011;2332;38.646;-9.154;2023-06-24T04:16:49;10.90;;;8.97;;
4638;SDS011;2332;38.646;-9.154;2023-06-24T04:19:15;11.87;;;8.73;;
4638;SDS011;2332;38.646;-9.154;2023-06-24T04:21:41;10.93;;;9.17;;
4638;SDS011;2332;38.646;-9.154;2023-06-24T04:24:06;10.37;;;8.90;;
4638;SDS011;2332;38.646;-9.154;2023-06-24T04:26:32;13.27;;;8.50;;
4638;SDS011;2332;38.646;-9.154;2023-06-24T04:28:57;11.63;;;9.07;;
4638;SDS011;2332;38.646;-9.154;2023-06-24T04:31:23;11.50;;;8.63;;
4638;SDS011;2332;38.646;-9.154;2023-06-24T04:33:48;15.20;;;8.33;;
4638;SDS011;2332;38.646;-9.154;2023-06-24T04:36:13;15.50;;;9.00;;
4638;SDS011;2332;38.646;-9.154;2023-06-24T04:38:39;13.20;;;8.27;;
4638;SDS011;2332;38.646;-9.154;2023-06-24T04:41:04;11.53;;;8.83;;
4638;SDS011;2332;38.646;-9.154;2023-06-24T04:43:29;10.40;;;8.30;;
4638;SDS011;2332;38.646;-9.154;2023-06-24T04:45:55;10.97;;;7.60;;
4638;SDS011;2332;38.646;-9.154;2023-06-24T04:48:22;18.53;;;8.80;;
4638;SDS011;2332;38.646;-9.154;2023-06-24T04:50:48;11.27;;;8.17;;
4638;SDS011;2332;38.646;-9.154;2023-06-24T04:53:14;13.00;;;8.50;;
4638;SDS011;2332;38.646;-9.154;2023-06-24T04:55:39;11.50;;;8.63;;
4638;SDS011;2332;38.646;-9.154;2023-06-24T04:58:05;13.87;;;9.03;;
4638;SDS011;2332;38.646;-9.154;2023-06-24T05:00:30;28.93;;;9.83;;
4638;SDS011;2332;38.646;-9.154;2023-06-24T05:02:55;20.47;;;9.23;;
4638;SDS011;2332;38.646;-9.154;2023-06-24T05:05:21;11.37;;;8.77;;
4638;SDS011;2332;38.646;-9.154;2023-06-24T05:07:46;12.80;;;8.40;;
4638;SDS011;2332;38.646;-9.154;2023-06-24T05:10:11;17.43;;;9.33;;
4638;SDS011;2332;38.646;-9.154;2023-06-24T05:12:37;13.07;;;9.03;;
4638;SDS011;2332;38.646;-9.154;2023-06-24T05:15:02;11.80;;;8.80;;
4638;SDS011;2332;38.646;-9.154;2023-06-24T05:17:28;12.57;;;9.17;;
4638;SDS011;2332;38.646;-9.154;2023-06-24T05:19:53;10.60;;;8.60;;
4638;SDS011;2332;38.646;-9.154;2023-06-24T05:22:18;21.43;;;10.27;;
4638;SDS011;2332;38.646;-9.154;2023-06-24T05:24:44;16.43;;;8.80;;
4638;SDS011;2332;38.646;-9.154;2023-06-24T05:27:09;13.17;;;10.30;;
4638;SDS011;2332;38.646;-9.154;2023-06-24T05:29:34;14.70;;;9.87;;
4638;SDS011;2332;38.646;-9.154;2023-06-24T05:32:00;18.17;;;9.50;;
4638;SDS011;2332;38.646;-9.154;2023-06-24T05:34:28;14.03;;;9.63;;
4638;SDS011;2332;38.646;-9.154;2023-06-24T05:36:53;17.80;;;10.10;;
4638;SDS011;2332;38.646;-9.154;2023-06-24T05:39:19;13.43;;;9.67;;
4638;SDS011;2332;38.646;-9.154;2023-06-24T05:41:45;13.80;;;8.93;;
4638;SDS011;2332;38.646;-9.154;2023-06-24T05:44:10;13.33;;;9.27;;
4638;SDS011;2332;38.646;-9.154;2023-06-24T05:46:36;12.43;;;9.77;;
4638;SDS011;2332;38.646;-9.154;2023-06-24T05:49:01;13.20;;;9.67;;
4638;SDS011;2332;38.646;-9.154;2023-06-24T05:51:27;15.17;;;10.00;;
4638;SDS011;2332;38.646;-9.154;2023-06-24T05:53:52;11.57;;;9.70;;
4638;SDS011;2332;38.646;-9.154;2023-06-24T05:56:18;14.87;;;9.87;;
4638;SDS011;2332;38.646;-9.154;2023-06-24T05:58:43;16.67;;;10.13;;
4638;SDS011;2332;38.646;-9.154;2023-06-24T06:01:09;14.70;;;9.60;;
4638;SDS011;2332;38.646;-9.154;2023-06-24T06:03:34;13.07;;;9.90;;
4638;SDS011;2332;38.646;-9.154;2023-06-24T06:06:00;18.67;;;9.63;;
4638;SDS011;2332;38.646;-9.154;2023-06-24T06:08:25;15.13;;;9.23;;
4638;SDS011;2332;38.646;-9.154;2023-06-24T06:10:50;17.37;;;10.03;;
4638;SDS011;2332;38.646;-9.154;2023-06-24T06:13:16;17.80;;;9.43;;
4638;SDS011;2332;38.646;-9.154;2023-06-24T06:15:41;15.53;;;9.50;;
4638;SDS011;2332;38.646;-9.154;2023-06-24T06:18:07;13.30;;;9.23;;
4638;SDS011;2332;38.646;-9.154;2023-06-24T06:20:32;11.60;;;8.97;;
4638;SDS011;2332;38.646;-9.154;2023-06-24T06:22:57;10.30;;;8.50;;
4638;SDS011;2332;38.646;-9.154;2023-06-24T06:25:23;12.17;;;9.10;;
4638;SDS011;2332;38.646;-9.154;2023-06-24T06:27:48;12.80;;;8.83;;
4638;SDS011;2332;38.646;-9.154;2023-06-24T06:30:14;15.20;;;10.03;;
4638;SDS011;2332;38.646;-9.154;2023-06-24T06:32:40;9.43;;;8.53;;
4638;SDS011;2332;38.646;-9.154;2023-06-24T06:35:06;9.13;;;8.33;;
4638;SDS011;2332;38.646;-9.154;2023-06-24T06:37:31;9.53;;;7.57;;
4638;SDS011;2332;38.646;-9.154;2023-06-24T06:39:56;8.90;;;8.10;;
4638;SDS011;2332;38.646;-9.154;2023-06-24T06:42:22;10.00;;;8.40;;
4638;SDS011;2332;38.646;-9.154;2023-06-24T06:44:47;10.50;;;8.27;;
4638;SDS011;2332;38.646;-9.154;2023-06-24T06:47:13;10.17;;;7.70;;
4638;SDS011;2332;38.646;-9.154;2023-06-24T06:49:38;8.10;;;7.40;;
4638;SDS011;2332;38.646;-9.154;2023-06-24T06:52:04;8.37;;;7.67;;
4638;SDS011;2332;38.646;-9.154;2023-06-24T06:54:30;8.50;;;7.70;;
4638;SDS011;2332;38.646;-9.154;2023-06-24T06:56:59;9.30;;;7.30;;
4638;SDS011;2332;38.646;-9.154;2023-06-24T06:59:25;9.67;;;7.83;;
4638;SDS011;2332;38.646;-9.154;2023-06-24T07:01:50;9.00;;;7.50;;
4638;SDS011;2332;38.646;-9.154;2023-06-24T07:04:15;9.87;;;7.90;;
4638;SDS011;2332;38.646;-9.154;2023-06-24T07:06:41;11.00;;;8.50;;
4638;SDS011;2332;38.646;-9.154;2023-06-24T07:09:06;8.33;;;7.53;;
4638;SDS011;2332;38.646;-9.154;2023-06-24T07:11:32;15.30;;;8.40;;
4638;SDS011;2332;38.646;-9.154;2023-06-24T07:13:58;8.87;;;7.40;;
4638;SDS011;2332;38.646;-9.154;2023-06-24T07:16:23;10.50;;;7.90;;
4638;SDS011;2332;38.646;-9.154;2023-06-24T07:18:48;9.17;;;8.23;;
4638;SDS011;2332;38.646;-9.154;2023-06-24T07:21:14;12.13;;;7.83;;
4638;SDS011;2332;38.646;-9.154;2023-06-24T07:23:39;9.30;;;8.17;;
4638;SDS011;2332;38.646;-9.154;2023-06-24T07:26:05;9.37;;;8.37;;
4638;SDS011;2332;38.646;-9.154;2023-06-24T07:28:30;9.70;;;8.30;;
4638;SDS011;2332;38.646;-9.154;2023-06-24T07:30:55;12.27;;;8.40;;
4638;SDS011;2332;38.646;-9.154;2023-06-24T07:33:21;11.47;;;8.13;;
4638;SDS011;2332;38.646;-9.154;2023-06-24T07:35:46;8.97;;;7.93;;
4638;SDS011;2332;38.646;-9.154;2023-06-24T07:38:12;10.50;;;8.93;;
4638;SDS011;2332;38.646;-9.154;2023-06-24T07:40:37;10.00;;;8.67;;
4638;SDS011;2332;38.646;-9.154;2023-06-24T07:43:02;10.23;;;9.10;;
4638;SDS011;2332;38.646;-9.154;2023-06-24T07:45:28;8.90;;;8.00;;
4638;SDS011;2332;38.646;-9.154;2023-06-24T07:47:53;9.43;;;8.37;;
4638;SDS011;2332;38.646;-9.154;2023-06-24T07:50:19;11.03;;;9.20;;
4638;SDS011;2332;38.646;-9.154;2023-06-24T07:52:44;9.53;;;8.63;;
4638;SDS011;2332;38.646;-9.154;2023-06-24T07:55:10;12.53;;;9.20;;
4638;SDS011;2332;38.646;-9.154;2023-06-24T07:57:36;10.50;;;9.37;;
4638;SDS011;2332;38.646;-9.154;2023-06-24T08:00:02;12.43;;;8.60;;
4638;SDS011;2332;38.646;-9.154;2023-06-24T08:02:27;10.67;;;9.67;;
4638;SDS011;2332;38.646;-9.154;2023-06-24T08:04:53;12.60;;;9.50;;
4638;SDS011;2332;38.646;-9.154;2023-06-24T08:07:18;11.27;;;8.90;;
4638;SDS011;2332;38.646;-9.154;2023-06-24T08:09:43;11.03;;;8.67;;
4638;SDS011;2332;38.646;-9.154;2023-06-24T08:12:09;16.93;;;9.10;;
4638;SDS011;2332;38.646;-9.154;2023-06-24T08:14:34;10.30;;;8.63;;
4638;SDS011;2332;38.646;-9.154;2023-06-24T08:17:00;12.50;;;9.30;;
4638;SDS011;2332;38.646;-9.154;2023-06-24T08:19:26;14.33;;;8.77;;
4638;SDS011;2332;38.646;-9.154;2023-06-24T08:21:54;14.50;;;9.90;;
4638;SDS011;2332;38.646;-9.154;2023-06-24T08:24:19;13.43;;;8.70;;
4638;SDS011;2332;38.646;-9.154;2023-06-24T08:26:45;17.30;;;9.87;;
4638;SDS011;2332;38.646;-9.154;2023-06-24T08:29:10;10.20;;;9.20;;
4638;SDS011;2332;38.646;-9.154;2023-06-24T08:31:35;15.50;;;8.87;;
4638;SDS011;2332;38.646;-9.154;2023-06-24T08:34:01;13.10;;;8.50;;
4638;SDS011;2332;38.646;-9.154;2023-06-24T08:36:31;11.43;;;8.47;;
4638;SDS011;2332;38.646;-9.154;2023-06-24T08:38:57;11.70;;;8.80;;
4638;SDS011;2332;38.646;-9.154;2023-06-24T08:41:22;10.87;;;7.93;;
4638;SDS011;2332;38.646;-9.154;2023-06-24T08:43:50;10.83;;;7.20;;
4638;SDS011;2332;38.646;-9.154;2023-06-24T08:46:15;11.57;;;8.67;;
4638;SDS011;2332;38.646;-9.154;2023-06-24T08:48:42;9.30;;;8.30;;
4638;SDS011;2332;38.646;-9.154;2023-06-24T08:51:11;14.87;;;7.57;;
4638;SDS011;2332;38.646;-9.154;2023-06-24T08:53:37;11.00;;;7.93;;
4638;SDS011;2332;38.646;-9.154;2023-06-24T08:56:04;8.67;;;7.70;;
4638;SDS011;2332;38.646;-9.154;2023-06-24T08:58:29;8.57;;;7.77;;
4638;SDS011;2332;38.646;-9.154;2023-06-24T09:00:55;9.50;;;7.73;;
4638;SDS011;2332;38.646;-9.154;2023-06-24T09:03:21;9.90;;;7.87;;
4638;SDS011;2332;38.646;-9.154;2023-06-24T09:05:47;11.67;;;8.33;;
4638;SDS011;2332;38.646;-9.154;2023-06-24T09:08:13;9.37;;;8.10;;
4638;SDS011;2332;38.646;-9.154;2023-06-24T09:10:39;8.63;;;7.83;;
4638;SDS011;2332;38.646;-9.154;2023-06-24T09:13:05;8.73;;;7.93;;
4638;SDS011;2332;38.646;-9.154;2023-06-24T09:15:35;10.63;;;8.53;;
4638;SDS011;2332;38.646;-9.154;2023-06-24T09:18:00;8.83;;;7.93;;
4638;SDS011;2332;38.646;-9.154;2023-06-24T09:20:27;10.30;;;8.40;;
4638;SDS011;2332;38.646;-9.154;2023-06-24T09:22:57;17.27;;;8.50;;
4638;SDS011;2332;38.646;-9.154;2023-06-24T09:25:22;11.00;;;8.63;;
4638;SDS011;2332;38.646;-9.154;2023-06-24T09:27:48;9.47;;;8.47;;
4638;SDS011;2332;38.646;-9.154;2023-06-24T09:30:20;9.03;;;8.00;;
4638;SDS011;2332;38.646;-9.154;2023-06-24T09:32:47;9.00;;;8.20;;
4638;SDS011;2332;38.646;-9.154;2023-06-24T09:35:13;9.10;;;8.10;;
4638;SDS011;2332;38.646;-9.154;2023-06-24T09:37:38;12.87;;;9.20;;
4638;SDS011;2332;38.646;-9.154;2023-06-24T09:40:04;9.63;;;8.63;;
4638;SDS011;2332;38.646;-9.154;2023-06-24T09:42:31;9.70;;;8.70;;
4638;SDS011;2332;38.646;-9.154;2023-06-24T09:44:56;11.33;;;8.43;;
4638;SDS011;2332;38.646;-9.154;2023-06-24T09:47:22;10.10;;;8.17;;
4638;SDS011;2332;38.646;-9.154;2023-06-24T09:49:51;10.70;;;7.93;;
4638;SDS011;2332;38.646;-9.154;2023-06-24T09:52:16;8.77;;;7.93;;
4638;SDS011;2332;38.646;-9.154;2023-06-24T09:54:42;9.13;;;8.20;;
4638;SDS011;2332;38.646;-9.154;2023-06-24T09:57:08;9.07;;;8.33;;
4638;SDS011;2332;38.646;-9.154;2023-06-24T09:59:36;10.60;;;8.13;;
4638;SDS011;2332;38.646;-9.154;2023-06-24T10:02:02;11.40;;;9.43;;
4638;SDS011;2332;38.646;-9.154;2023-06-24T10:04:27;10.57;;;9.10;;
4638;SDS011;2332;38.646;-9.154;2023-06-24T10:06:53;10.47;;;8.00;;
4638;SDS011;2332;38.646;-9.154;2023-06-24T10:09:19;10.10;;;9.17;;
4638;SDS011;2332;38.646;-9.154;2023-06-24T10:11:45;14.37;;;8.13;;
4638;SDS011;2332;38.646;-9.154;2023-06-24T10:14:11;8.17;;;7.50;;
4638;SDS011;2332;38.646;-9.154;2023-06-24T10:16:37;11.37;;;8.20;;
4638;SDS011;2332;38.646;-9.154;2023-06-24T10:19:02;9.40;;;8.33;;
4638;SDS011;2332;38.646;-9.154;2023-06-24T10:24:29;10.57;;;8.40;;
4638;SDS011;2332;38.646;-9.154;2023-06-24T10:26:55;9.87;;;8.87;;
4638;SDS011;2332;38.646;-9.154;2023-06-24T10:29:32;9.13;;;8.27;;
4638;SDS011;2332;38.646;-9.154;2023-06-24T10:32:01;10.13;;;9.13;;
4638;SDS011;2332;38.646;-9.154;2023-06-24T10:34:27;9.83;;;8.83;;
4638;SDS011;2332;38.646;-9.154;2023-06-24T10:36:53;14.87;;;7.63;;
4638;SDS011;2332;38.646;-9.154;2023-06-24T10:39:35;10.73;;;8.77;;
4638;SDS011;2332;38.646;-9.154;2023-06-24T10:44:48;10.23;;;8.87;;
4638;SDS011;2332;38.646;-9.154;2023-06-24T10:47:13;11.20;;;8.77;;
4638;SDS011;2332;38.646;-9.154;2023-06-24T10:49:39;11.83;;;8.70;;
4638;SDS011;2332;38.646;-9.154;2023-06-24T10:52:04;8.80;;;8.00;;
4638;SDS011;2332;38.646;-9.154;2023-06-24T10:54:32;13.70;;;8.60;;
4638;SDS011;2332;38.646;-9.154;2023-06-24T10:56:58;11.13;;;8.13;;
4638;SDS011;2332;38.646;-9.154;2023-06-24T10:59:23;10.10;;;8.80;;
4638;SDS011;2332;38.646;-9.154;2023-06-24T11:01:55;9.40;;;7.73;;
4638;SDS011;2332;38.646;-9.154;2023-06-24T11:04:20;11.10;;;8.07;;
4638;SDS011;2332;38.646;-9.154;2023-06-24T11:07:01;11.30;;;8.20;;
4638;SDS011;2332;38.646;-9.154;2023-06-24T11:09:27;11.43;;;8.10;;
4638;SDS011;2332;38.646;-9.154;2023-06-24T11:11:52;11.40;;;8.00;;
4638;SDS011;2332;38.646;-9.154;2023-06-24T11:14:19;12.10;;;8.50;;
4638;SDS011;2332;38.646;-9.154;2023-06-24T11:16:45;11.77;;;8.60;;
4638;SDS011;2332;38.646;-9.154;2023-06-24T11:19:10;13.10;;;8.73;;
4638;SDS011;2332;38.646;-9.154;2023-06-24T11:21:36;14.00;;;9.10;;
4638;SDS011;2332;38.646;-9.154;2023-06-24T11:24:04;9.20;;;8.30;;
4638;SDS011;2332;38.646;-9.154;2023-06-24T11:26:30;15.10;;;8.33;;
4638;SDS011;2332;38.646;-9.154;2023-06-24T11:28:55;10.40;;;9.27;;
4638;SDS011;2332;38.646;-9.154;2023-06-24T11:31:27;9.33;;;8.47;;
4638;SDS011;2332;38.646;-9.154;2023-06-24T11:33:52;9.30;;;8.40;;
4638;SDS011;2332;38.646;-9.154;2023-06-24T11:36:21;10.70;;;8.43;;
4638;SDS011;2332;38.646;-9.154;2023-06-24T11:38:47;20.60;;;8.23;;
4638;SDS011;2332;38.646;-9.154;2023-06-24T11:41:13;11.83;;;8.00;;
4638;SDS011;2332;38.646;-9.154;2023-06-24T11:43:45;8.47;;;7.77;;
4638;SDS011;2332;38.646;-9.154;2023-06-24T11:46:10;9.40;;;7.30;;
4638;SDS011;2332;38.646;-9.154;2023-06-24T11:48:42;9.43;;;8.63;;
4638;SDS011;2332;38.646;-9.154;2023-06-24T11:51:13;14.03;;;8.63;;
4638;SDS011;2332;38.646;-9.154;2023-06-24T11:53:42;7.87;;;7.00;;
4638;SDS011;2332;38.646;-9.154;2023-06-24T11:56:11;8.47;;;7.47;;
4638;SDS011;2332;38.646;-9.154;2023-06-24T11:58:36;10.40;;;8.03;;
4638;SDS011;2332;38.646;-9.154;2023-06-24T12:01:02;8.73;;;6.90;;
4638;SDS011;2332;38.646;-9.154;2023-06-24T12:03:30;9.37;;;8.00;;
4638;SDS011;2332;38.646;-9.154;2023-06-24T12:05:57;9.77;;;7.10;;
4638;SDS011;2332;38.646;-9.154;2023-06-24T12:08:23;8.73;;;7.93;;
4638;SDS011;2332;38.646;-9.154;2023-06-24T12:10:48;11.57;;;9.63;;
4638;SDS011;2332;38.646;-9.154;2023-06-24T12:13:14;9.30;;;7.50;;
4638;SDS011;2332;38.646;-9.154;2023-06-24T12:15:39;8.43;;;7.70;;
4638;SDS011;2332;38.646;-9.154;2023-06-24T12:18:05;13.07;;;8.10;;
4638;SDS011;2332;38.646;-9.154;2023-06-24T12:20:30;10.03;;;8.53;;
4638;SDS011;2332;38.646;-9.154;2023-06-24T12:22:57;8.77;;;7.87;;
4638;SDS011;2332;38.646;-9.154;2023-06-24T12:25:22;14.93;;;8.80;;
4638;SDS011;2332;38.646;-9.154;2023-06-24T12:27:47;9.13;;;8.30;;
4638;SDS011;2332;38.646;-9.154;2023-06-24T12:30:13;18.00;;;9.77;;
4638;SDS011;2332;38.646;-9.154;2023-06-24T12:32:38;8.87;;;7.97;;
4638;SDS011;2332;38.646;-9.154;2023-06-24T12:35:04;10.70;;;8.77;;
4638;SDS011;2332;38.646;-9.154;2023-06-24T12:37:30;13.00;;;8.13;;
4638;SDS011;2332;38.646;-9.154;2023-06-24T12:39:56;8.60;;;7.77;;
4638;SDS011;2332;38.646;-9.154;2023-06-24T12:42:22;11.20;;;7.43;;
4638;SDS011;2332;38.646;-9.154;2023-06-24T12:44:47;9.40;;;7.50;;
4638;SDS011;2332;38.646;-9.154;2023-06-24T12:47:12;9.90;;;8.90;;
4638;SDS011;2332;38.646;-9.154;2023-06-24T12:49:38;8.83;;;8.13;;
4638;SDS011;2332;38.646;-9.154;2023-06-24T12:52:03;9.53;;;8.53;;
4638;SDS011;2332;38.646;-9.154;2023-06-24T12:54:29;12.30;;;7.70;;
4638;SDS011;2332;38.646;-9.154;2023-06-24T12:56:54;13.40;;;8.23;;
4638;SDS011;2332;38.646;-9.154;2023-06-24T12:59:19;8.90;;;8.00;;
4638;SDS011;2332;38.646;-9.154;2023-06-24T13:01:45;8.67;;;7.70;;
4638;SDS011;2332;38.646;-9.154;2023-06-24T13:04:11;10.73;;;8.07;;
4638;SDS011;2332;38.646;-9.154;2023-06-24T13:06:36;11.27;;;8.50;;
4638;SDS011;2332;38.646;-9.154;2023-06-24T13:09:02;10.53;;;8.30;;
4638;SDS011;2332;38.646;-9.154;2023-06-24T13:11:27;12.20;;;8.20;;
4638;SDS011;2332;38.646;-9.154;2023-06-24T13:13:53;12.73;;;8.70;;
4638;SDS011;2332;38.646;-9.154;2023-06-24T13:16:18;12.20;;;8.87;;
4638;SDS011;2332;38.646;-9.154;2023-06-24T13:18:44;11.53;;;9.13;;
4638;SDS011;2332;38.646;-9.154;2023-06-24T13:21:09;9.90;;;8.90;;
4638;SDS011;2332;38.646;-9.154;2023-06-24T13:23:35;13.10;;;9.03;;
4638;SDS011;2332;38.646;-9.154;2023-06-24T13:26:06;11.43;;;8.53;;
4638;SDS011;2332;38.646;-9.154;2023-06-24T13:28:31;23.63;;;8.90;;
4638;SDS011;2332;38.646;-9.154;2023-06-24T13:30:57;15.43;;;9.53;;
4638;SDS011;2332;38.646;-9.154;2023-06-24T13:33:22;16.90;;;9.07;;
4638;SDS011;2332;38.646;-9.154;2023-06-24T13:35:51;13.57;;;10.00;;
4638;SDS011;2332;38.646;-9.154;2023-06-24T13:38:16;10.70;;;8.77;;
4638;SDS011;2332;38.646;-9.154;2023-06-24T13:40:42;14.40;;;9.33;;
4638;SDS011;2332;38.646;-9.154;2023-06-24T13:43:07;12.47;;;9.30;;
4638;SDS011;2332;38.646;-9.154;2023-06-24T13:45:33;17.10;;;9.80;;
4638;SDS011;2332;38.646;-9.154;2023-06-24T13:47:58;15.60;;;9.63;;
4638;SDS011;2332;38.646;-9.154;2023-06-24T13:50:24;11.17;;;9.80;;
4638;SDS011;2332;38.646;-9.154;2023-06-24T13:52:49;10.27;;;8.33;;
4638;SDS011;2332;38.646;-9.154;2023-06-24T13:55:15;11.40;;;9.30;;
4638;SDS011;2332;38.646;-9.154;2023-06-24T13:57:40;10.87;;;8.70;;
4638;SDS011;2332;38.646;-9.154;2023-06-24T14:00:06;11.43;;;9.10;;
4638;SDS011;2332;38.646;-9.154;2023-06-24T14:02:31;16.67;;;9.40;;
4638;SDS011;2332;38.646;-9.154;2023-06-24T14:04:57;16.33;;;8.80;;
4638;SDS011;2332;38.646;-9.154;2023-06-24T14:07:22;13.13;;;9.30;;
4638;SDS011;2332;38.646;-9.154;2023-06-24T14:09:47;11.30;;;9.00;;
4638;SDS011;2332;38.646;-9.154;2023-06-24T14:12:13;17.37;;;9.60;;
4638;SDS011;2332;38.646;-9.154;2023-06-24T14:14:38;13.90;;;9.27;;
4638;SDS011;2332;38.646;-9.154;2023-06-24T14:17:05;13.13;;;9.10;;
4638;SDS011;2332;38.646;-9.154;2023-06-24T14:19:33;17.03;;;9.50;;
4638;SDS011;2332;38.646;-9.154;2023-06-24T14:21:59;15.30;;;10.13;;
4638;SDS011;2332;38.646;-9.154;2023-06-24T14:24:24;15.50;;;9.73;;
4638;SDS011;2332;38.646;-9.154;2023-06-24T14:26:50;14.00;;;9.20;;
4638;SDS011;2332;38.646;-9.154;2023-06-24T14:29:15;13.60;;;11.73;;
4638;SDS011;2332;38.646;-9.154;2023-06-24T14:31:41;16.03;;;11.43;;
4638;SDS011;2332;38.646;-9.154;2023-06-24T14:34:06;17.77;;;12.47;;
4638;SDS011;2332;38.646;-9.154;2023-06-24T14:36:31;17.60;;;12.00;;
4638;SDS011;2332;38.646;-9.154;2023-06-24T14:38:57;19.30;;;12.97;;
4638;SDS011;2332;38.646;-9.154;2023-06-24T14:41:22;21.87;;;11.97;;
4638;SDS011;2332;38.646;-9.154;2023-06-24T14:43:48;16.63;;;10.60;;
4638;SDS011;2332;38.646;-9.154;2023-06-24T14:46:13;18.47;;;12.20;;
4638;SDS011;2332;38.646;-9.154;2023-06-24T14:48:38;15.93;;;11.63;;
4638;SDS011;2332;38.646;-9.154;2023-06-24T14:51:04;17.17;;;12.70;;
4638;SDS011;2332;38.646;-9.154;2023-06-24T14:53:29;18.47;;;13.23;;
4638;SDS011;2332;38.646;-9.154;2023-06-24T14:55:54;17.67;;;12.50;;
4638;SDS011;2332;38.646;-9.154;2023-06-24T14:58:20;20.43;;;13.10;;
4638;SDS011;2332;38.646;-9.154;2023-06-24T15:00:45;18.90;;;11.90;;